createdAt,value
2022-08-25T00:00:14.989Z,38.56
2022-08-25T00:02:41.430Z,38.98
2022-08-25T00:05:21.308Z,38.95
2022-08-25T00:07:48.062Z,38.38
2022-08-25T00:10:14.443Z,38.77
2022-08-25T00:12:40.836Z,38.48
2022-08-25T00:15:07.242Z,38.50
2022-08-25T00:17:33.652Z,38.80
2022-08-25T00:20:00.017Z,38.40
2022-08-25T00:22:26.412Z,39.08
2022-08-25T00:24:52.825Z,39.10
2022-08-25T00:27:19.307Z,39.01
2022-08-25T00:29:45.684Z,38.74
2022-08-25T00:32:12.083Z,38.61
2022-08-25T00:34:38.458Z,38.56
2022-08-25T00:37:04.873Z,38.08
2022-08-25T00:39:31.262Z,38.35
2022-08-25T00:41:57.656Z,38.71
2022-08-25T00:44:24.090Z,38.73
2022-08-25T00:46:50.512Z,38.43
2022-08-25T00:49:24.774Z,38.08
2022-08-25T00:51:52.012Z,38.37
2022-08-25T00:54:18.407Z,38.57
2022-08-25T00:56:44.841Z,38.88
2022-08-25T00:59:11.223Z,38.89
2022-08-25T01:01:37.642Z,38.62
2022-08-25T01:04:04.065Z,38.74
2022-08-25T01:06:30.473Z,39.30
2022-08-25T01:08:56.897Z,39.37
2022-08-25T01:11:23.291Z,39.64
2022-08-25T01:13:49.681Z,39.60
2022-08-25T01:16:16.121Z,39.68
2022-08-25T01:18:42.549Z,40.24
2022-08-25T01:21:08.943Z,40.36
2022-08-25T01:23:35.356Z,40.39
2022-08-25T01:26:01.749Z,40.81
2022-08-25T01:28:28.137Z,41.03
2022-08-25T01:30:54.621Z,41.27
2022-08-25T01:33:22.399Z,41.36
2022-08-25T01:35:48.791Z,41.71
2022-08-25T01:38:15.187Z,41.91
2022-08-25T01:40:41.575Z,42.35
2022-08-25T01:43:08.003Z,42.74
2022-08-25T01:45:34.393Z,42.65
2022-08-25T01:48:00.891Z,43.30
2022-08-25T01:50:27.331Z,43.62
2022-08-25T01:52:53.716Z,44.01
2022-08-25T01:55:20.092Z,43.97
2022-08-25T01:57:46.472Z,44.22
2022-08-25T02:00:12.894Z,44.39
2022-08-25T02:02:42.460Z,44.48
2022-08-25T02:05:09.257Z,44.44
2022-08-25T02:07:35.634Z,44.48
2022-08-25T02:10:03.495Z,44.34
2022-08-25T02:12:30.030Z,44.50
2022-08-25T02:14:56.419Z,44.46
2022-08-25T02:17:22.814Z,44.75
2022-08-25T02:19:49.190Z,44.48
2022-08-25T02:22:15.581Z,44.34
2022-08-25T02:24:41.996Z,44.34
2022-08-25T02:27:08.423Z,44.54
2022-08-25T02:29:34.801Z,44.92
2022-08-25T02:32:01.187Z,44.76
2022-08-25T02:34:27.568Z,44.50
2022-08-25T02:36:53.946Z,44.12
2022-08-25T02:39:20.331Z,44.18
2022-08-25T02:41:46.717Z,44.28
2022-08-25T02:44:13.142Z,44.85
2022-08-25T02:46:39.549Z,44.62
2022-08-25T02:49:05.945Z,45.15
2022-08-25T02:51:32.326Z,44.80
2022-08-25T02:53:58.707Z,44.73
2022-08-25T02:56:25.107Z,44.72
2022-08-25T02:58:51.553Z,44.63
2022-08-25T03:01:17.968Z,44.46
2022-08-25T03:03:44.559Z,44.36
2022-08-25T03:06:11.057Z,44.57
2022-08-25T03:08:37.437Z,44.77
2022-08-25T03:11:03.835Z,44.89
2022-08-25T03:13:30.241Z,45.29
2022-08-25T03:15:58.022Z,45.45
2022-08-25T03:18:24.418Z,45.68
2022-08-25T03:20:51.040Z,45.14
2022-08-25T03:23:17.453Z,45.27
2022-08-25T03:25:43.864Z,45.88
2022-08-25T03:28:10.269Z,45.79
2022-08-25T03:30:36.658Z,45.72
2022-08-25T03:33:05.787Z,45.92
2022-08-25T03:35:32.173Z,45.97
2022-08-25T03:37:59.603Z,45.87
2022-08-25T03:40:26.086Z,46.11
2022-08-25T03:42:52.491Z,46.04
2022-08-25T03:45:18.881Z,46.08
2022-08-25T03:47:45.276Z,46.06
2022-08-25T03:50:11.654Z,45.66
2022-08-25T03:52:42.355Z,45.80
2022-08-25T03:55:09.155Z,45.55
2022-08-25T03:57:35.540Z,45.81
2022-08-25T04:00:01.930Z,45.89
2022-08-25T04:02:28.328Z,46.02
2022-08-25T04:04:54.772Z,45.91
2022-08-25T04:07:22.028Z,45.85
2022-08-25T04:09:48.415Z,46.93
2022-08-25T04:12:14.789Z,46.13
2022-08-25T04:14:41.182Z,46.07
2022-08-25T04:17:07.558Z,46.07
2022-08-25T04:19:35.306Z,46.57
2022-08-25T04:22:01.693Z,46.34
2022-08-25T04:24:29.808Z,46.26
2022-08-25T04:26:56.195Z,46.10
2022-08-25T04:29:23.498Z,46.19
2022-08-25T04:31:50.413Z,46.62
2022-08-25T04:34:29.490Z,46.72
2022-08-25T04:36:56.455Z,46.71
2022-08-25T04:39:22.882Z,46.85
2022-08-25T04:41:49.301Z,46.78
2022-08-25T04:44:15.723Z,47.30
2022-08-25T04:46:42.104Z,47.43
2022-08-25T04:49:08.516Z,48.00
2022-08-25T04:51:34.945Z,47.94
2022-08-25T04:54:01.348Z,48.23
2022-08-25T04:56:27.777Z,48.06
2022-08-25T04:58:54.189Z,48.15
2022-08-25T05:01:20.631Z,48.56
2022-08-25T05:03:47.078Z,48.56
2022-08-25T05:06:16.029Z,49.11
2022-08-25T05:08:42.816Z,48.76
2022-08-25T05:11:12.506Z,48.98
2022-08-25T05:13:39.314Z,49.14
2022-08-25T05:16:05.758Z,48.98
2022-08-25T05:18:36.160Z,48.95
2022-08-25T05:21:02.557Z,49.11
2022-08-25T05:23:29.002Z,49.19
2022-08-25T05:25:55.386Z,49.35
2022-08-25T05:28:21.780Z,49.27
2022-08-25T05:30:48.172Z,49.81
2022-08-25T05:33:14.572Z,49.50
2022-08-25T05:35:40.966Z,49.45
2022-08-25T05:38:07.360Z,48.95
2022-08-25T05:40:41.511Z,48.72
2022-08-25T05:43:07.902Z,48.88
2022-08-25T05:45:34.332Z,48.44
2022-08-25T05:48:00.734Z,48.50
2022-08-25T05:50:27.133Z,48.51
2022-08-25T05:52:53.534Z,48.72
2022-08-25T05:55:19.924Z,48.72
2022-08-25T05:57:46.308Z,48.76
2022-08-25T06:00:12.695Z,48.73
2022-08-25T06:02:39.081Z,49.39
2022-08-25T06:05:05.479Z,50.10
2022-08-25T06:07:31.861Z,49.94
2022-08-25T06:09:58.321Z,49.89
2022-08-25T06:12:24.805Z,50.00
2022-08-25T06:14:51.195Z,50.12
2022-08-25T06:17:17.606Z,49.99
2022-08-25T06:19:44.067Z,50.00
2022-08-25T06:22:10.995Z,50.49
2022-08-25T06:24:37.369Z,50.39
2022-08-25T06:27:03.774Z,50.27
2022-08-25T06:29:30.160Z,50.48
2022-08-25T06:31:56.652Z,50.32
2022-08-25T06:34:24.184Z,50.52
2022-08-25T06:36:50.798Z,49.58
2022-08-25T06:39:17.197Z,49.60
2022-08-25T06:41:43.577Z,49.42
2022-08-25T06:44:09.973Z,49.91
2022-08-25T06:46:37.189Z,50.29
2022-08-25T06:49:03.747Z,51.16
2022-08-25T06:51:30.176Z,51.04
2022-08-25T06:53:56.558Z,52.55
2022-08-25T06:56:22.935Z,53.25
2022-08-25T06:58:50.447Z,52.20
2022-08-25T07:01:20.005Z,51.16
2022-08-25T07:03:46.855Z,50.45
2022-08-25T07:06:14.036Z,51.79
2022-08-25T07:08:41.058Z,51.47
2022-08-25T07:11:07.458Z,51.34
2022-08-25T07:13:42.536Z,51.13
2022-08-25T07:16:08.980Z,51.02
2022-08-25T07:18:36.053Z,51.96
2022-08-25T07:21:02.433Z,50.89
2022-08-25T07:23:30.415Z,49.82
2022-08-25T07:25:56.806Z,48.85
2022-08-25T07:28:23.199Z,48.98
2022-08-25T07:30:52.177Z,49.80
2022-08-25T07:33:18.685Z,50.26
2022-08-25T07:35:45.077Z,49.68
2022-08-25T07:38:15.550Z,49.32
2022-08-25T07:40:47.193Z,49.42
2022-08-25T07:43:19.865Z,51.44
2022-08-25T07:45:49.678Z,53.10
2022-08-25T07:48:16.116Z,52.69
2022-08-25T07:50:44.857Z,52.85
2022-08-25T07:53:11.516Z,51.41
2022-08-25T07:55:38.959Z,52.39
2022-08-25T07:58:05.599Z,51.95
2022-08-25T08:00:32.004Z,52.01
2022-08-25T08:02:58.535Z,51.05
2022-08-25T08:05:25.226Z,51.43
2022-08-25T08:07:51.624Z,51.70
2022-08-25T08:10:53.843Z,51.02
2022-08-25T08:13:06.626Z,51.35
2022-08-25T08:15:33.752Z,50.60
2022-08-25T08:18:00.158Z,50.39
2022-08-25T08:20:26.613Z,49.91
2022-08-25T08:22:53.000Z,49.40
2022-08-25T08:25:21.550Z,49.27
2022-08-25T08:27:54.976Z,49.90
2022-08-25T08:30:21.642Z,49.53
2022-08-25T08:33:08.587Z,49.79
2022-08-25T08:35:35.945Z,49.26
2022-08-25T08:38:02.463Z,48.66
2022-08-25T08:40:28.901Z,48.54
2022-08-25T08:42:55.669Z,47.51
2022-08-25T08:45:22.089Z,47.65
2022-08-25T08:47:48.471Z,47.27
2022-08-25T08:50:17.566Z,49.71
2022-08-25T08:52:48.730Z,49.82
2022-08-25T08:55:15.303Z,50.75
2022-08-25T08:57:41.877Z,51.35
2022-08-25T09:00:08.549Z,52.65
2022-08-25T09:02:39.449Z,52.61
2022-08-25T09:05:18.181Z,53.18
2022-08-25T09:07:44.611Z,52.47
2022-08-25T09:10:13.716Z,52.05
2022-08-25T09:12:40.217Z,52.14
2022-08-25T09:15:12.750Z,51.18
2022-08-25T09:17:39.729Z,50.27
2022-08-25T09:20:06.157Z,50.68
2022-08-25T09:22:46.907Z,50.56
2022-08-25T09:25:18.766Z,49.57
2022-08-25T09:27:48.662Z,47.99
2022-08-25T09:30:16.058Z,48.25
2022-08-25T09:32:42.470Z,48.62
2022-08-25T09:35:15.483Z,49.55
2022-08-25T09:37:41.886Z,48.53
2022-08-25T09:40:08.311Z,47.76
2022-08-25T09:42:34.760Z,46.64
2022-08-25T09:45:01.327Z,46.45
2022-08-25T09:47:27.729Z,45.86
2022-08-25T09:49:54.533Z,46.06
2022-08-25T09:52:21.963Z,46.18
2022-08-25T09:54:48.380Z,45.74
2022-08-25T09:57:14.786Z,45.75
2022-08-25T09:59:42.059Z,46.34
2022-08-25T10:02:23.723Z,45.75
2022-08-25T10:04:50.171Z,45.56
2022-08-25T10:07:16.648Z,46.10
2022-08-25T10:09:43.031Z,44.47
2022-08-25T10:12:09.446Z,43.27
2022-08-25T10:14:37.498Z,43.17
2022-08-25T10:17:03.896Z,45.27
2022-08-25T10:19:30.505Z,44.86
2022-08-25T10:21:56.907Z,44.87
2022-08-25T10:24:23.283Z,45.54
2022-08-25T10:26:50.068Z,45.27
2022-08-25T10:29:16.785Z,45.91
2022-08-25T10:31:43.173Z,44.46
2022-08-25T10:34:09.659Z,45.33
2022-08-25T10:36:36.074Z,43.91
2022-08-25T10:39:03.591Z,43.30
2022-08-25T10:41:29.988Z,43.42
2022-08-25T10:43:56.415Z,42.56
2022-08-25T10:46:25.164Z,42.00
2022-08-25T10:48:51.624Z,41.66
2022-08-25T10:51:23.707Z,41.41
2022-08-25T10:53:54.205Z,41.63
2022-08-25T10:56:22.727Z,39.41
2022-08-25T10:58:49.134Z,38.99
2022-08-25T11:01:15.974Z,39.47
2022-08-25T11:03:43.584Z,39.14
2022-08-25T11:06:09.975Z,39.12
2022-08-25T11:08:36.363Z,38.39
2022-08-25T11:11:02.856Z,36.09
2022-08-25T11:13:30.943Z,38.42
2022-08-25T11:16:16.652Z,37.07
2022-08-25T11:18:43.702Z,35.60
2022-08-25T11:21:10.213Z,35.29
2022-08-25T11:23:38.469Z,36.88
2022-08-25T11:26:04.931Z,36.75
2022-08-25T11:28:31.798Z,36.59
2022-08-25T11:30:58.240Z,36.04
2022-08-25T11:33:25.902Z,35.32
2022-08-25T11:35:52.291Z,36.22
2022-08-25T11:38:18.655Z,35.84
2022-08-25T11:40:50.290Z,35.32
2022-08-25T11:43:16.876Z,33.69
2022-08-25T11:45:43.836Z,34.22
2022-08-25T11:48:12.254Z,33.84
2022-08-25T11:50:39.236Z,33.38
2022-08-25T11:53:05.637Z,33.24
2022-08-25T11:55:37.681Z,33.04
2022-08-25T11:58:04.238Z,33.74
2022-08-25T12:00:30.925Z,32.97
2022-08-25T12:03:01.300Z,33.02
2022-08-25T12:05:28.326Z,32.58
2022-08-25T12:07:54.751Z,32.77
2022-08-25T12:10:22.697Z,32.42
2022-08-25T12:12:49.249Z,32.91
2022-08-25T12:15:16.809Z,32.14
2022-08-25T12:17:44.617Z,32.89
2022-08-25T12:20:11.272Z,33.14
2022-08-25T12:22:37.699Z,33.10
2022-08-25T12:25:04.107Z,32.73
2022-08-25T12:27:33.525Z,32.67
2022-08-25T12:30:00.494Z,34.25
2022-08-25T12:32:27.387Z,32.94
2022-08-25T12:34:53.980Z,33.07
2022-08-25T12:37:20.386Z,32.29
2022-08-25T12:39:49.966Z,32.06
2022-08-25T12:42:16.396Z,33.30
2022-08-25T12:44:43.256Z,32.65
2022-08-25T12:47:10.433Z,33.22
2022-08-25T12:49:37.119Z,32.45
2022-08-25T12:52:03.550Z,32.95
2022-08-25T12:54:29.952Z,33.17
2022-08-25T12:56:56.357Z,32.82
2022-08-25T12:59:22.757Z,32.36
2022-08-25T13:01:49.400Z,31.32
2022-08-25T13:04:15.876Z,31.12
2022-08-25T13:06:43.234Z,31.34
2022-08-25T13:09:09.700Z,31.21
2022-08-25T13:11:36.794Z,31.31
2022-08-25T13:14:03.163Z,31.28
2022-08-25T13:16:30.132Z,31.19
2022-08-25T13:18:56.648Z,30.76
2022-08-25T13:21:23.085Z,32.50
2022-08-25T13:23:49.557Z,31.27
2022-08-25T13:26:16.328Z,30.46
2022-08-25T13:28:50.289Z,30.29
2022-08-25T13:31:16.946Z,30.89
2022-08-25T13:33:45.098Z,30.72
2022-08-25T13:36:11.525Z,29.96
2022-08-25T13:38:38.273Z,30.59
2022-08-25T13:41:09.443Z,30.74
2022-08-25T13:43:36.312Z,30.86
2022-08-25T13:46:04.865Z,30.48
2022-08-25T13:48:31.783Z,29.62
2022-08-25T13:50:58.175Z,29.43
2022-08-25T13:53:24.651Z,29.48
2022-08-25T13:55:52.170Z,30.09
2022-08-25T13:58:24.189Z,30.26
2022-08-25T14:00:53.683Z,31.09
2022-08-25T14:03:20.372Z,30.72
2022-08-25T14:05:56.423Z,31.64
2022-08-25T14:08:25.871Z,30.54
2022-08-25T14:10:54.750Z,29.91
2022-08-25T14:13:21.132Z,29.21
2022-08-25T14:15:48.352Z,29.23
2022-08-25T14:18:14.762Z,28.37
2022-08-25T14:20:41.701Z,28.57
2022-08-25T14:23:10.266Z,27.87
2022-08-25T14:25:36.772Z,27.16
2022-08-25T14:28:08.126Z,28.22
2022-08-25T14:30:34.901Z,27.83
2022-08-25T14:33:01.364Z,28.83
2022-08-25T14:35:27.763Z,29.34
2022-08-25T14:37:54.174Z,28.38
2022-08-25T14:40:20.612Z,27.74
2022-08-25T14:42:47.066Z,28.62
2022-08-25T14:45:13.525Z,28.00
2022-08-25T14:47:39.917Z,28.66
2022-08-25T14:50:06.312Z,28.08
2022-08-25T14:52:33.041Z,28.92
2022-08-25T14:55:00.258Z,28.02
2022-08-25T14:57:26.808Z,28.82
2022-08-25T14:59:53.624Z,28.25
2022-08-25T15:02:20.346Z,28.09
2022-08-25T15:04:49.250Z,28.87
2022-08-25T15:07:18.320Z,28.98
2022-08-25T15:09:44.737Z,28.54
2022-08-25T15:12:12.553Z,28.13
2022-08-25T15:14:44.107Z,27.79
2022-08-25T15:17:11.864Z,28.15
2022-08-25T15:19:41.225Z,28.59
2022-08-25T15:22:07.612Z,28.14
2022-08-25T15:24:37.985Z,27.79
2022-08-25T15:27:05.463Z,26.79
2022-08-25T15:29:31.892Z,25.15
2022-08-25T15:31:58.351Z,26.46
2022-08-25T15:34:24.865Z,28.16
2022-08-25T15:36:51.327Z,28.07
2022-08-25T15:39:18.009Z,26.82
2022-08-25T15:41:45.461Z,26.52
2022-08-25T15:44:12.598Z,25.63
2022-08-25T15:46:39.245Z,27.84
2022-08-25T15:49:05.753Z,28.61
2022-08-25T15:51:34.403Z,27.09
2022-08-25T15:54:01.053Z,25.15
2022-08-25T15:56:27.445Z,24.86
2022-08-25T15:58:53.873Z,23.31
2022-08-25T16:01:20.333Z,22.53
2022-08-25T16:03:46.782Z,23.14
2022-08-25T16:06:13.199Z,24.52
2022-08-25T16:08:42.654Z,25.59
2022-08-25T16:11:09.068Z,23.82
2022-08-25T16:13:35.511Z,22.38
2022-08-25T16:16:02.027Z,23.05
2022-08-25T16:18:28.466Z,22.19
2022-08-25T16:20:54.867Z,21.77
2022-08-25T16:23:21.257Z,22.22
2022-08-25T16:25:47.635Z,24.46
2022-08-25T16:28:14.153Z,25.69
2022-08-25T16:30:40.552Z,26.64
2022-08-25T16:33:07.201Z,27.89
2022-08-25T16:35:36.338Z,26.75
2022-08-25T16:38:07.182Z,26.46
2022-08-25T16:40:33.780Z,26.98
2022-08-25T16:43:00.932Z,27.67
2022-08-25T16:45:27.320Z,28.25
2022-08-25T16:47:53.708Z,27.55
2022-08-25T16:50:20.108Z,27.35
2022-08-25T16:52:46.788Z,27.11
2022-08-25T16:55:13.181Z,28.28
2022-08-25T16:57:39.547Z,27.80
2022-08-25T17:00:05.940Z,27.22
2022-08-25T17:02:32.774Z,27.59
2022-08-25T17:04:59.178Z,27.19
2022-08-25T17:07:26.238Z,27.07
2022-08-25T17:09:52.638Z,27.85
2022-08-25T17:12:19.837Z,27.23
2022-08-25T17:14:46.249Z,27.98
2022-08-25T17:17:12.640Z,28.22
2022-08-25T17:19:41.303Z,28.09
2022-08-25T17:22:10.607Z,28.65
2022-08-25T17:24:40.506Z,28.74
2022-08-25T17:27:07.528Z,29.22
2022-08-25T17:29:33.921Z,29.20
2022-08-25T17:32:00.317Z,29.63
2022-08-25T17:34:26.903Z,29.68
2022-08-25T17:36:54.249Z,30.09
2022-08-25T17:39:22.374Z,30.34
2022-08-25T17:41:48.961Z,29.68
2022-08-25T17:44:16.886Z,29.78
2022-08-25T17:46:47.035Z,29.74
2022-08-25T17:49:14.330Z,30.20
2022-08-25T17:51:41.929Z,30.50
2022-08-25T17:54:08.350Z,32.79
2022-08-25T17:56:34.755Z,35.93
2022-08-25T17:59:01.145Z,36.09
2022-08-25T18:01:27.622Z,36.23
2022-08-25T18:03:54.054Z,36.16
2022-08-25T18:06:20.457Z,36.33
2022-08-25T18:08:52.191Z,35.72
2022-08-25T18:11:20.167Z,35.48
2022-08-25T18:13:46.588Z,34.97
2022-08-25T18:16:12.982Z,35.58
2022-08-25T18:18:39.390Z,35.60
2022-08-25T18:21:08.385Z,35.46
2022-08-25T18:23:34.809Z,35.72
2022-08-25T18:26:01.366Z,35.84
2022-08-25T18:28:27.802Z,36.11
2022-08-25T18:30:54.638Z,36.60
2022-08-25T18:33:22.663Z,36.86
2022-08-25T18:35:49.180Z,36.64
2022-08-25T18:38:15.591Z,36.95
2022-08-25T18:40:41.976Z,37.75
2022-08-25T18:43:08.446Z,37.87
2022-08-25T18:45:35.361Z,37.58
2022-08-25T18:48:03.954Z,37.82
2022-08-25T18:50:33.054Z,37.46
2022-08-25T18:52:59.462Z,38.13
2022-08-25T18:55:25.857Z,37.75
2022-08-25T18:57:52.268Z,36.21
2022-08-25T19:00:18.744Z,36.14
2022-08-25T19:02:47.010Z,36.06
2022-08-25T19:05:13.675Z,35.93
2022-08-25T19:07:40.331Z,36.08
2022-08-25T19:10:06.852Z,36.25
2022-08-25T19:12:33.688Z,36.22
2022-08-25T19:15:05.139Z,36.16
2022-08-25T19:17:37.404Z,36.16
2022-08-25T19:20:11.232Z,36.28
2022-08-25T19:22:41.580Z,36.01
2022-08-25T19:25:08.591Z,36.25
2022-08-25T19:27:35.731Z,36.08
2022-08-25T19:30:02.176Z,35.89
2022-08-25T19:32:28.691Z,35.53
2022-08-25T19:34:55.478Z,35.67
2022-08-25T19:37:21.974Z,35.78
2022-08-25T19:39:52.921Z,35.67
2022-08-25T19:42:31.698Z,35.54
2022-08-25T19:45:03.009Z,35.55
2022-08-25T19:47:29.478Z,35.47
2022-08-25T19:49:55.984Z,35.78
2022-08-25T19:52:22.414Z,35.80
2022-08-25T19:54:48.807Z,35.62
2022-08-25T19:57:27.828Z,35.95
2022-08-25T20:00:01.635Z,36.09
2022-08-25T20:02:29.520Z,36.12
2022-08-25T20:04:56.293Z,36.09
2022-08-25T20:07:22.692Z,36.13
2022-08-25T20:09:50.226Z,36.37
2022-08-25T20:12:16.701Z,36.56
2022-08-25T20:14:44.345Z,36.29
2022-08-25T20:17:14.818Z,36.36
2022-08-25T20:19:50.540Z,36.69
2022-08-25T20:22:17.497Z,36.59
2022-08-25T20:24:45.109Z,37.10
2022-08-25T20:27:11.540Z,37.67
2022-08-25T20:29:37.946Z,37.42
2022-08-25T20:32:04.370Z,37.95
2022-08-25T20:34:31.567Z,38.20
2022-08-25T20:36:59.094Z,38.00
2022-08-25T20:39:25.520Z,37.91
2022-08-25T20:41:51.933Z,38.09
2022-08-25T20:44:18.371Z,37.31
2022-08-25T20:46:44.794Z,38.15
2022-08-25T20:49:11.309Z,38.32
2022-08-25T20:51:38.456Z,40.51
2022-08-25T20:54:04.978Z,40.22
2022-08-25T20:56:31.385Z,40.33
2022-08-25T20:58:57.765Z,39.73
2022-08-25T21:01:24.348Z,39.44
2022-08-25T21:03:50.955Z,39.03
2022-08-25T21:06:17.427Z,38.93
2022-08-25T21:08:45.083Z,38.82
2022-08-25T21:11:13.252Z,39.14
2022-08-25T21:13:40.190Z,39.06
2022-08-25T21:16:06.603Z,39.08
2022-08-25T21:18:33.242Z,38.79
2022-08-25T21:20:59.699Z,38.87
2022-08-25T21:23:26.553Z,38.79
2022-08-25T21:25:52.951Z,39.15
2022-08-25T21:28:19.397Z,39.34
2022-08-25T21:30:47.635Z,39.01
2022-08-25T21:33:14.084Z,38.88
2022-08-25T21:35:40.535Z,38.65
2022-08-25T21:38:09.384Z,38.35
2022-08-25T21:40:35.826Z,38.53
2022-08-25T21:43:02.217Z,38.58
2022-08-25T21:45:28.627Z,39.17
2022-08-25T21:48:02.547Z,39.13
2022-08-25T21:50:29.159Z,38.94
2022-08-25T21:52:55.563Z,38.45
2022-08-25T21:55:21.953Z,38.38
2022-08-25T21:57:51.526Z,38.68
2022-08-25T22:00:21.329Z,38.95
2022-08-25T22:02:48.000Z,38.16
2022-08-25T22:05:15.389Z,38.57
2022-08-25T22:07:44.006Z,38.83
2022-08-25T22:10:16.611Z,38.45
2022-08-25T22:12:44.213Z,38.73
2022-08-25T22:15:10.639Z,38.78
2022-08-25T22:17:40.123Z,38.85
2022-08-25T22:20:06.515Z,38.51
2022-08-25T22:22:33.675Z,38.61
2022-08-25T22:25:00.922Z,38.78
2022-08-25T22:27:27.314Z,38.88
2022-08-25T22:29:53.721Z,38.70
2022-08-25T22:32:20.129Z,38.63
2022-08-25T22:34:46.567Z,39.09
2022-08-25T22:37:12.954Z,39.14
2022-08-25T22:39:43.005Z,38.73
2022-08-25T22:42:09.436Z,38.86
2022-08-25T22:44:35.834Z,39.00
2022-08-25T22:47:02.247Z,38.58
2022-08-25T22:49:28.620Z,38.82
2022-08-25T22:51:55.354Z,38.98
2022-08-25T22:54:22.484Z,38.98
2022-08-25T22:56:50.291Z,39.40
2022-08-25T22:59:16.684Z,39.34
2022-08-25T23:01:43.150Z,39.10
2022-08-25T23:04:09.535Z,39.35
2022-08-25T23:06:37.230Z,39.24
2022-08-25T23:09:03.663Z,38.80
2022-08-25T23:11:30.097Z,38.47
2022-08-25T23:13:57.632Z,38.43
2022-08-25T23:16:24.075Z,38.38
2022-08-25T23:18:50.817Z,38.06
2022-08-25T23:21:17.203Z,38.28
2022-08-25T23:23:50.653Z,38.03
2022-08-25T23:26:17.061Z,38.00
2022-08-25T23:28:45.762Z,38.03
2022-08-25T23:31:12.186Z,38.10
2022-08-25T23:33:38.598Z,38.09
2022-08-25T23:36:05.685Z,37.87
2022-08-25T23:38:32.092Z,37.91
2022-08-25T23:40:58.872Z,38.09
2022-08-25T23:43:27.350Z,38.17
2022-08-25T23:45:53.797Z,38.49
2022-08-25T23:48:20.271Z,38.51
2022-08-25T23:50:46.655Z,38.40
2022-08-25T23:53:13.074Z,38.45
2022-08-25T23:55:39.598Z,38.12
2022-08-25T23:58:19.657Z,37.63
